createdAt,value
2024-04-06T00:02:22.886Z,99350.62
2024-04-06T00:04:58.371Z,99349.92
2024-04-06T00:07:30.231Z,99351.29
2024-04-06T00:10:01.088Z,99356.71
2024-04-06T00:12:33.033Z,99358.95
2024-04-06T00:15:03.933Z,99357.30
2024-04-06T00:17:37.074Z,99355.91
2024-04-06T00:20:08.298Z,99366.55
2024-04-06T00:22:39.970Z,99365.06
2024-04-06T00:25:15.807Z,99369.50
2024-04-06T00:27:46.543Z,99369.26
2024-04-06T00:30:18.006Z,99372.77
2024-04-06T00:32:48.421Z,99372.39
2024-04-06T00:35:19.890Z,99378.65
2024-04-06T00:37:50.507Z,99374.95
2024-04-06T00:40:22.668Z,99378.81
2024-04-06T00:42:53.210Z,99383.93
2024-04-06T00:45:24.855Z,99379.70
2024-04-06T00:47:55.590Z,99380.55
2024-04-06T00:50:27.400Z,99384.42
2024-04-06T00:52:57.978Z,99386.64
2024-04-06T00:55:30.004Z,99389.43
2024-04-06T00:58:00.372Z,99391.65
2024-04-06T01:00:32.148Z,99393.38
2024-04-06T01:03:02.659Z,99397.15
2024-04-06T01:05:34.522Z,99401.89
2024-04-06T01:08:05.344Z,99404.47
2024-04-06T01:10:36.903Z,99404.13
2024-04-06T01:13:07.638Z,99415.19
2024-04-06T01:15:39.404Z,99424.80
2024-04-06T01:18:10.127Z,99435.31
2024-04-06T01:20:45.167Z,99449.50
2024-04-06T01:23:17.939Z,99469.30
2024-04-06T01:25:48.479Z,99472.27
2024-04-06T01:28:20.137Z,99474.19
2024-04-06T01:30:50.464Z,99470.32
2024-04-06T01:33:22.315Z,99469.67
2024-04-06T01:35:52.636Z,99472.67
2024-04-06T01:38:24.363Z,99475.10
2024-04-06T01:40:54.827Z,99473.88
2024-04-06T01:43:27.284Z,99479.48
2024-04-06T01:45:57.731Z,99488.60
2024-04-06T01:48:29.184Z,99486.58
2024-04-06T01:51:00.115Z,99484.27
2024-04-06T01:53:31.918Z,99486.76
2024-04-06T01:56:02.408Z,99489.06
2024-04-06T01:58:33.755Z,99487.69
2024-04-06T02:01:04.787Z,99488.43
2024-04-06T02:03:36.550Z,99484.12
2024-04-06T02:06:10.669Z,99489.61
2024-04-06T02:08:42.215Z,99490.45
2024-04-06T02:11:12.746Z,99491.98
2024-04-06T02:13:45.327Z,99493.41
2024-04-06T02:16:17.833Z,99501.37
2024-04-06T02:18:49.446Z,99501.42
2024-04-06T02:21:20.088Z,99506.77
2024-04-06T02:23:51.641Z,99509.43
2024-04-06T02:26:22.293Z,99513.64
2024-04-06T02:28:53.819Z,99516.98
2024-04-06T02:31:24.549Z,99521.23
2024-04-06T02:33:56.104Z,99522.42
2024-04-06T02:36:26.736Z,99522.16
2024-04-06T02:38:58.385Z,99525.61
2024-04-06T02:41:28.932Z,99529.77
2024-04-06T02:44:00.873Z,99533.83
2024-04-06T02:46:31.203Z,99537.91
2024-04-06T02:49:03.271Z,99548.49
2024-04-06T02:51:33.693Z,99553.74
2024-04-06T02:54:05.756Z,99559.17
2024-04-06T02:56:36.086Z,99560.60
2024-04-06T02:59:08.455Z,99563.78
2024-04-06T03:01:40.032Z,99568.50
2024-04-06T03:04:11.664Z,99570.76
2024-04-06T03:06:42.195Z,99577.70
2024-04-06T03:09:14.456Z,99579.67
2024-04-06T03:11:44.780Z,99583.27
2024-04-06T03:14:16.243Z,99581.88
2024-04-06T03:16:47.388Z,99583.87
2024-04-06T03:19:19.145Z,99587.05
2024-04-06T03:21:49.570Z,99590.23
2024-04-06T03:24:21.218Z,99587.46
2024-04-06T03:26:52.373Z,99595.02
2024-04-06T03:29:24.125Z,99598.30
2024-04-06T03:31:54.344Z,99604.67
2024-04-06T03:34:26.524Z,99603.30
2024-04-06T03:36:56.937Z,99604.30
2024-04-06T03:39:28.697Z,99602.80
2024-04-06T03:41:59.120Z,99604.77
2024-04-06T03:44:30.913Z,99603.84
2024-04-06T03:47:01.093Z,99609.64
2024-04-06T03:49:32.654Z,99613.08
2024-04-06T03:52:03.597Z,99616.89
2024-04-06T03:54:35.353Z,99620.52
2024-04-06T03:57:05.683Z,99626.16
2024-04-06T03:59:37.549Z,99627.45
2024-04-06T04:02:07.759Z,99628.63
2024-04-06T04:04:39.824Z,99632.02
2024-04-06T04:07:10.143Z,99631.17
2024-04-06T04:09:41.799Z,99634.54
2024-04-06T04:12:12.133Z,99634.98
2024-04-06T04:14:43.700Z,99641.20
2024-04-06T04:17:14.407Z,99645.31
2024-04-06T04:19:46.368Z,99647.92
2024-04-06T04:22:16.808Z,99645.16
2024-04-06T04:24:48.272Z,99644.36
2024-04-06T04:27:19.710Z,99644.45
2024-04-06T04:29:52.193Z,99649.11
2024-04-06T04:32:22.703Z,99649.20
2024-04-06T04:34:54.572Z,99651.65
2024-04-06T04:37:25.005Z,99656.02
2024-04-06T04:39:56.851Z,99657.13
2024-04-06T04:42:27.281Z,99661.19
2024-04-06T04:45:00.877Z,99656.28
2024-04-06T04:47:31.365Z,99660.76
2024-04-06T04:50:04.467Z,99661.14
2024-04-06T04:52:35.241Z,99665.74
2024-04-06T04:55:07.410Z,99668.98
2024-04-06T04:57:37.927Z,99668.42
2024-04-06T05:00:11.065Z,99672.95
2024-04-06T05:02:41.349Z,99673.21
2024-04-06T05:05:13.209Z,99677.05
2024-04-06T05:07:44.244Z,99680.50
2024-04-06T05:10:16.014Z,99687.67
2024-04-06T05:12:46.328Z,99689.58
2024-04-06T05:15:17.782Z,99689.11
2024-04-06T05:17:48.315Z,99697.20
2024-04-06T05:20:19.759Z,99698.39
2024-04-06T05:22:50.655Z,99701.80
2024-04-06T05:25:22.246Z,99703.61
2024-04-06T05:27:52.790Z,99701.45
2024-04-06T05:30:24.228Z,99703.60
2024-04-06T05:32:54.762Z,99705.41
2024-04-06T05:35:26.208Z,99711.42
2024-04-06T05:37:56.750Z,99711.64
2024-04-06T05:40:28.291Z,99704.34
2024-04-06T05:42:58.823Z,99708.47
2024-04-06T05:45:30.366Z,99705.98
2024-04-06T05:48:06.945Z,99703.09
2024-04-06T05:50:39.401Z,99707.44
2024-04-06T05:53:09.834Z,99712.85
2024-04-06T05:55:41.399Z,99716.58
2024-04-06T05:58:11.818Z,99719.23
2024-04-06T06:00:43.489Z,99715.00
2024-04-06T06:03:14.025Z,99713.22
2024-04-06T06:05:45.757Z,99712.17
2024-04-06T06:08:16.715Z,99708.98
2024-04-06T06:10:48.471Z,99705.48
2024-04-06T06:13:18.899Z,99711.38
2024-04-06T06:15:50.851Z,99713.92
2024-04-06T06:18:21.382Z,99715.92
2024-04-06T06:20:53.033Z,99712.24
2024-04-06T06:23:23.573Z,99717.63
2024-04-06T06:25:55.114Z,99720.96
2024-04-06T06:28:25.781Z,99724.13
2024-04-06T06:30:57.618Z,99720.16
2024-04-06T06:33:28.453Z,99719.71
2024-04-06T06:40:41.010Z,99726.24
2024-04-06T06:41:27.373Z,99724.00
2024-04-06T06:43:57.690Z,99722.02
2024-04-06T06:46:29.761Z,99718.00
2024-04-06T06:49:00.415Z,99718.77
2024-04-06T06:51:32.761Z,99721.73
2024-04-06T06:54:04.140Z,99728.88
2024-04-06T06:56:35.876Z,99727.94
2024-04-06T06:59:06.295Z,99733.01
2024-04-06T07:01:39.767Z,99729.69
2024-04-06T07:04:10.997Z,99723.34
2024-04-06T07:09:18.766Z,99718.09
2024-04-06T07:11:49.079Z,99717.75
2024-04-06T07:14:20.741Z,99708.79
2024-04-06T07:16:51.056Z,99709.77
2024-04-06T07:19:23.030Z,99711.81
2024-04-06T07:21:53.342Z,99717.91
2024-04-06T07:24:25.311Z,99724.82
2024-04-06T07:26:55.533Z,99727.64
2024-04-06T07:29:27.394Z,99725.63
2024-04-06T07:31:57.621Z,99725.40
2024-04-06T07:34:29.682Z,99726.22
2024-04-06T07:36:59.794Z,99730.70
2024-04-06T07:39:31.759Z,99728.77
2024-04-06T07:42:02.083Z,99728.10
2024-04-06T07:44:33.842Z,99733.43
2024-04-06T07:47:04.670Z,99736.56
2024-04-06T07:49:36.647Z,99740.13
2024-04-06T07:52:07.277Z,99741.02
2024-04-06T07:54:39.229Z,99734.23
2024-04-06T07:57:09.759Z,99738.12
2024-04-06T07:59:42.644Z,99737.48
2024-04-06T08:02:13.602Z,99743.44
2024-04-06T08:04:46.274Z,99740.02
2024-04-06T08:07:16.726Z,99741.37
2024-04-06T08:09:48.453Z,99739.55
2024-04-06T08:12:18.979Z,99736.41
2024-04-06T08:14:50.861Z,99737.83
2024-04-06T08:17:21.571Z,99739.30
2024-04-06T08:19:53.455Z,99733.91
2024-04-06T08:22:23.952Z,99727.84
2024-04-06T08:24:56.134Z,99728.98
2024-04-06T08:27:26.960Z,99731.24
2024-04-06T08:29:58.725Z,99730.14
2024-04-06T08:32:29.898Z,99730.22
2024-04-06T08:35:01.831Z,99730.77
2024-04-06T08:37:32.260Z,99725.23
2024-04-06T08:40:03.928Z,99719.73
2024-04-06T08:42:45.396Z,99718.20
2024-04-06T08:45:17.670Z,99720.61
2024-04-06T08:47:48.087Z,99721.98
2024-04-06T08:50:21.282Z,99722.49
2024-04-06T08:52:55.399Z,99726.92
2024-04-06T08:55:25.728Z,99724.97
2024-04-06T08:57:57.575Z,99728.73
2024-04-06T09:00:28.537Z,99727.77
2024-04-06T09:03:00.282Z,99727.00
2024-04-06T09:05:30.922Z,99731.00
2024-04-06T09:08:02.459Z,99728.88
2024-04-06T09:10:33.292Z,99727.52
2024-04-06T09:13:04.964Z,99729.59
2024-04-06T09:15:36.631Z,99725.54
2024-04-06T09:18:08.676Z,99724.09
2024-04-06T09:20:39.092Z,99722.26
2024-04-06T09:23:10.648Z,99715.59
2024-04-06T09:25:41.703Z,99715.82
2024-04-06T09:28:14.932Z,99708.27
2024-04-06T09:30:45.517Z,99710.20
2024-04-06T09:33:16.970Z,99710.48
2024-04-06T09:35:47.696Z,99707.38
2024-04-06T09:38:20.718Z,99712.67
2024-04-06T09:40:52.340Z,99710.38
2024-04-06T09:43:25.018Z,99711.37
2024-04-06T09:45:55.442Z,99714.45
2024-04-06T09:48:27.000Z,99715.70
2024-04-06T09:50:58.290Z,99712.03
2024-04-06T09:53:30.209Z,99716.66
2024-04-06T09:56:00.833Z,99712.52
2024-04-06T09:58:34.748Z,99715.62
2024-04-06T10:01:13.218Z,99712.11
2024-04-06T10:03:46.953Z,99711.66
2024-04-06T10:06:18.315Z,99709.95
2024-04-06T10:08:53.616Z,99709.43
2024-04-06T10:11:25.928Z,99707.94
2024-04-06T10:14:00.195Z,99709.20
2024-04-06T10:16:33.638Z,99704.98
2024-04-06T10:19:04.027Z,99704.48
2024-04-06T10:21:36.743Z,99703.89
2024-04-06T10:24:13.907Z,99701.20
2024-04-06T10:26:50.705Z,99701.59
2024-04-06T10:29:22.357Z,99699.32
2024-04-06T10:31:52.927Z,99695.84
2024-04-06T10:34:27.400Z,99693.93
2024-04-06T10:37:02.960Z,99697.83
2024-04-06T10:39:33.384Z,99696.34
2024-04-06T10:42:08.423Z,99695.02
2024-04-06T10:44:41.515Z,99696.77
2024-04-06T10:47:12.453Z,99687.70
2024-04-06T10:49:47.810Z,99688.95
2024-04-06T10:52:20.111Z,99692.42
2024-04-06T10:54:50.936Z,99691.58
2024-04-06T10:57:23.843Z,99696.52
2024-04-06T10:59:54.104Z,99697.39
2024-04-06T11:02:26.071Z,99692.58
2024-04-06T11:04:57.959Z,99695.55
2024-04-06T11:07:30.109Z,99695.34
2024-04-06T11:10:00.522Z,99701.20
2024-04-06T11:12:33.424Z,99704.23
2024-04-06T11:15:05.377Z,99702.67
2024-04-06T11:17:37.032Z,99700.95
2024-04-06T11:20:08.302Z,99702.35
2024-04-06T11:22:40.442Z,99707.48
2024-04-06T11:25:17.172Z,99707.66
2024-04-06T11:27:49.483Z,99707.33
2024-04-06T11:30:20.699Z,99707.56
2024-04-06T11:32:53.408Z,99704.22
2024-04-06T11:35:23.840Z,99708.86
2024-04-06T11:37:55.280Z,99710.36
2024-04-06T11:40:26.022Z,99712.92
2024-04-06T11:42:57.462Z,99709.50
2024-04-06T11:45:28.211Z,99705.15
2024-04-06T11:47:59.960Z,99704.92
2024-04-06T11:50:30.391Z,99702.35
2024-04-06T11:53:02.046Z,99701.93
2024-04-06T11:55:32.770Z,99700.30
2024-04-06T11:58:05.458Z,99700.90
2024-04-06T12:00:35.792Z,99705.58
2024-04-06T12:03:07.706Z,99707.02
2024-04-06T12:05:38.179Z,99707.03
2024-04-06T12:08:09.826Z,99705.05
2024-04-06T12:10:40.597Z,99698.06
2024-04-06T12:13:12.418Z,99702.77
2024-04-06T12:15:42.840Z,99705.20
2024-04-06T12:18:14.600Z,99701.65
2024-04-06T12:20:45.337Z,99704.42
2024-04-06T12:23:17.009Z,99704.52
2024-04-06T12:25:47.618Z,99703.59
2024-04-06T12:28:19.813Z,99702.58
2024-04-06T12:30:50.422Z,99701.52
2024-04-06T12:33:22.182Z,99705.60
2024-04-06T12:35:53.664Z,99706.27
2024-04-06T12:38:25.486Z,99710.63
2024-04-06T12:40:56.631Z,99710.60
2024-04-06T12:43:28.495Z,99708.09
2024-04-06T12:45:58.919Z,99700.20
2024-04-06T12:48:30.807Z,99703.59
2024-04-06T12:51:02.447Z,99700.66
2024-04-06T12:53:34.196Z,99706.01
2024-04-06T12:56:05.034Z,99705.62
2024-04-06T12:58:36.588Z,99709.25
2024-04-06T13:01:06.921Z,99706.02
2024-04-06T13:03:49.193Z,99707.24
2024-04-06T13:06:28.447Z,99713.62
2024-04-06T13:08:58.867Z,99709.83
2024-04-06T13:11:30.524Z,99708.10
2024-04-06T13:14:01.256Z,99705.86
2024-04-06T13:16:33.230Z,99700.92
2024-04-06T13:19:04.271Z,99700.59
2024-04-06T13:21:36.034Z,99696.06
2024-04-06T13:24:06.915Z,99695.92
2024-04-06T13:26:39.128Z,99693.23
2024-04-06T13:29:10.617Z,99692.67
2024-04-06T13:31:42.542Z,99689.27
2024-04-06T13:34:12.959Z,99690.95
2024-04-06T13:36:44.715Z,99691.09
2024-04-06T13:39:14.943Z,99688.54
2024-04-06T13:41:48.289Z,99690.13
2024-04-06T13:44:18.461Z,99690.50
2024-04-06T13:46:50.427Z,99689.17
2024-04-06T13:49:20.972Z,99693.23
2024-04-06T13:51:52.811Z,99692.35
2024-04-06T13:54:23.029Z,99688.21
2024-04-06T13:56:54.789Z,99679.20
2024-04-06T13:59:25.014Z,99676.71
2024-04-06T14:01:57.183Z,99673.98
2024-04-06T14:04:27.728Z,99673.93
2024-04-06T14:06:59.372Z,99674.52
2024-04-06T14:09:30.828Z,99673.86
2024-04-06T14:12:05.246Z,99675.04
2024-04-06T14:14:37.918Z,99672.96
2024-04-06T14:17:08.492Z,99670.27
2024-04-06T14:19:41.015Z,99672.95
2024-04-06T14:22:11.444Z,99673.75
2024-04-06T14:24:43.108Z,99671.27
2024-04-06T14:27:13.641Z,99666.52
2024-04-06T14:29:45.602Z,99665.26
2024-04-06T14:32:16.238Z,99665.96
2024-04-06T14:34:48.201Z,99665.19
2024-04-06T14:37:18.867Z,99661.88
2024-04-06T14:39:51.103Z,99661.52
2024-04-06T14:42:21.521Z,99656.34
2024-04-06T14:44:53.375Z,99650.14
2024-04-06T14:47:24.023Z,99645.89
2024-04-06T14:49:55.763Z,99642.17
2024-04-06T14:52:26.239Z,99648.20
2024-04-06T14:54:59.793Z,99650.77
2024-04-06T14:57:30.321Z,99658.39
2024-04-06T15:00:05.989Z,99657.30
2024-04-06T15:02:37.525Z,99659.70
2024-04-06T15:05:09.090Z,99663.77
2024-04-06T15:07:40.554Z,99674.18
2024-04-06T15:10:11.173Z,99675.41
2024-04-06T15:12:42.710Z,99675.63
2024-04-06T15:15:13.442Z,99678.42
2024-04-06T15:17:44.898Z,99678.11
2024-04-06T15:20:15.423Z,99676.66
2024-04-06T15:22:47.190Z,99673.95
2024-04-06T15:25:19.161Z,99677.26
2024-04-06T15:27:51.001Z,99685.31
2024-04-06T15:30:21.426Z,99682.06
2024-04-06T15:32:53.093Z,99686.16
2024-04-06T15:35:24.135Z,99689.02
2024-04-06T15:37:55.791Z,99689.98
2024-04-06T15:40:26.579Z,99691.30
2024-04-06T15:42:58.487Z,99692.45
2024-04-06T15:45:29.021Z,99690.74
2024-04-06T15:48:01.685Z,99693.75
2024-04-06T15:50:32.633Z,99697.86
2024-04-06T15:53:04.794Z,99705.89
2024-04-06T15:55:36.350Z,99705.66
2024-04-06T15:58:08.318Z,99703.11
2024-04-06T16:00:38.841Z,99700.21
2024-04-06T16:03:11.112Z,99700.51
2024-04-06T16:05:41.532Z,99698.89
2024-04-06T16:08:13.308Z,99701.14
2024-04-06T16:10:44.046Z,99706.60
2024-04-06T16:13:15.901Z,99699.13
2024-04-06T16:15:46.411Z,99698.80
2024-04-06T16:18:18.079Z,99691.84
2024-04-06T16:20:48.700Z,99693.24
2024-04-06T16:23:20.357Z,99695.35
2024-04-06T16:25:50.677Z,99697.39
2024-04-06T16:28:22.564Z,99697.67
2024-04-06T16:30:54.402Z,99700.00
2024-04-06T16:33:29.335Z,99700.54
2024-04-06T16:36:02.011Z,99698.11
2024-04-06T16:38:32.645Z,99702.23
2024-04-06T16:41:04.496Z,99699.96
2024-04-06T16:43:34.826Z,99702.02
2024-04-06T16:46:06.479Z,99702.45
2024-04-06T16:48:37.010Z,99696.53
2024-04-06T16:51:09.906Z,99695.97
2024-04-06T16:53:42.271Z,99700.44
2024-04-06T16:56:14.029Z,99700.85
2024-04-06T16:58:45.360Z,99702.01
2024-04-06T17:01:17.033Z,99703.34
2024-04-06T17:03:47.967Z,99705.81
2024-04-06T17:06:19.631Z,99701.86
2024-04-06T17:08:51.282Z,99701.44
2024-04-06T17:11:22.840Z,99696.14
2024-04-06T17:13:53.371Z,99697.37
2024-04-06T17:16:25.313Z,99698.08
2024-04-06T17:18:56.673Z,99701.40
2024-04-06T17:21:28.326Z,99700.16
2024-04-06T17:23:58.855Z,99702.05
2024-04-06T17:26:30.614Z,99703.88
2024-04-06T17:29:01.107Z,99704.05
2024-04-06T17:31:32.751Z,99708.46
2024-04-06T17:34:03.437Z,99709.27
2024-04-06T17:36:35.305Z,99708.98
2024-04-06T17:39:06.590Z,99718.20
2024-04-06T17:41:39.609Z,99722.81
2024-04-06T17:44:10.922Z,99727.62
2024-04-06T17:46:43.244Z,99729.86
2024-04-06T17:49:13.671Z,99726.20
2024-04-06T17:51:45.740Z,99729.89
2024-04-06T17:54:16.470Z,99723.02
2024-04-06T17:56:48.345Z,99724.54
2024-04-06T17:59:18.668Z,99723.65
2024-04-06T18:01:50.524Z,99725.45
2024-04-06T18:04:20.841Z,99731.87
2024-04-06T18:06:52.718Z,99728.36
2024-04-06T18:09:24.164Z,99730.39
2024-04-06T18:11:56.855Z,99730.05
2024-04-06T18:14:29.094Z,99728.86
2024-04-06T18:17:01.366Z,99738.36
2024-04-06T18:19:32.229Z,99741.72
2024-04-06T18:22:04.779Z,99745.03
2024-04-06T18:24:35.618Z,99750.53
2024-04-06T18:27:07.066Z,99752.88
2024-04-06T18:29:37.907Z,99754.55
2024-04-06T18:32:09.657Z,99763.73
2024-04-06T18:34:43.674Z,99768.92
2024-04-06T18:37:15.947Z,99764.05
2024-04-06T18:39:50.360Z,99764.61
2024-04-06T18:42:22.528Z,99764.69
2024-04-06T18:44:53.058Z,99759.95
2024-04-06T18:47:24.613Z,99756.50
2024-04-06T18:49:55.460Z,99755.00
2024-04-06T18:52:27.112Z,99753.86
2024-04-06T18:54:57.630Z,99752.86
2024-04-06T18:57:29.073Z,99756.89
2024-04-06T18:59:59.611Z,99760.95
2024-04-06T19:02:31.178Z,99763.35
2024-04-06T19:05:01.795Z,99758.23
2024-04-06T19:07:33.279Z,99757.32
2024-04-06T19:10:03.987Z,99762.89
2024-04-06T19:12:35.439Z,99766.64
2024-04-06T19:15:07.504Z,99774.09
2024-04-06T19:17:39.046Z,99784.04
2024-04-06T19:20:13.232Z,99785.73
2024-04-06T19:22:44.913Z,99788.64
2024-04-06T19:25:15.441Z,99788.94
2024-04-06T19:27:47.208Z,99787.35
2024-04-06T19:30:17.626Z,99787.89
2024-04-06T19:32:49.431Z,99786.67
2024-04-06T19:35:20.131Z,99786.10
2024-04-06T19:37:51.889Z,99784.42
2024-04-06T19:40:22.321Z,99779.07
2024-04-06T19:42:53.960Z,99774.33
2024-04-06T19:45:24.394Z,99769.23
2024-04-06T19:47:55.949Z,99769.66
2024-04-06T19:50:26.507Z,99770.92
2024-04-06T19:52:58.127Z,99773.71
2024-04-06T19:55:29.504Z,99774.76
2024-04-06T19:58:01.542Z,99772.27
2024-04-06T20:00:31.869Z,99772.20
2024-04-06T20:03:05.193Z,99780.07
2024-04-06T20:05:36.722Z,99786.73
2024-04-06T20:08:10.324Z,99789.58
2024-04-06T20:10:41.449Z,99787.17
2024-04-06T20:13:13.209Z,99784.65
2024-04-06T20:15:43.759Z,99785.69
2024-04-06T20:18:17.866Z,99788.90
2024-04-06T20:20:48.075Z,99789.42
2024-04-06T20:23:38.473Z,99789.38
2024-04-06T20:26:15.151Z,99788.66
2024-04-06T20:28:47.015Z,99786.84
2024-04-06T20:33:49.500Z,99785.67
2024-04-06T20:36:20.128Z,99788.16
2024-04-06T20:38:52.607Z,99792.25
2024-04-06T20:41:23.136Z,99791.54
2024-04-06T20:43:54.692Z,99785.01
2024-04-06T20:46:25.519Z,99787.39
2024-04-06T20:48:56.966Z,99794.04
2024-04-06T20:51:27.502Z,99797.15
2024-04-06T20:53:58.953Z,99795.92
2024-04-06T20:56:29.479Z,99802.63
2024-04-06T20:59:00.928Z,99800.06
2024-04-06T21:01:31.571Z,99803.86
2024-04-06T21:04:04.756Z,99809.27
2024-04-06T21:06:35.384Z,99808.61
2024-04-06T21:09:07.565Z,99802.35
2024-04-06T21:11:38.185Z,99801.61
2024-04-06T21:14:09.631Z,99813.10
2024-04-06T21:16:40.281Z,99821.05
2024-04-06T21:19:11.713Z,99821.37
2024-04-06T21:21:44.803Z,99820.63
2024-04-06T21:24:16.659Z,99822.41
2024-04-06T21:26:47.747Z,99827.83
2024-04-06T21:29:19.966Z,99826.75
2024-04-06T21:31:51.015Z,99830.04
2024-04-06T21:34:22.680Z,99829.38
2024-04-06T21:36:54.158Z,99826.45
2024-04-06T21:39:25.776Z,99830.23
2024-04-06T21:41:56.513Z,99830.98
2024-04-06T21:44:29.205Z,99828.31
2024-04-06T21:46:59.820Z,99824.46
2024-04-06T21:49:31.588Z,99821.71
2024-04-06T21:52:01.997Z,99817.80
2024-04-06T21:54:33.757Z,99819.81
2024-04-06T21:57:04.427Z,99822.70
2024-04-06T21:59:36.768Z,99819.64
2024-04-06T22:02:10.458Z,99820.09
2024-04-06T22:04:42.474Z,99820.98
2024-04-06T22:07:14.042Z,99820.63
2024-04-06T22:09:46.161Z,99821.67
2024-04-06T22:12:16.266Z,99824.32
2024-04-06T22:14:48.233Z,99824.77
2024-04-06T22:17:18.870Z,99824.19
2024-04-06T22:19:50.727Z,99819.30
2024-04-06T22:22:21.151Z,99821.17
2024-04-06T22:24:52.808Z,99823.80
2024-04-06T22:27:23.233Z,99820.84
2024-04-06T22:29:55.199Z,99819.71
2024-04-06T22:32:25.419Z,99818.73
2024-04-06T22:34:57.082Z,99818.48
2024-04-06T22:37:32.005Z,99820.08
2024-04-06T22:40:04.789Z,99820.41
2024-04-06T22:42:35.318Z,99825.58
2024-04-06T22:45:07.382Z,99820.87
2024-04-06T22:47:37.597Z,99822.41
2024-04-06T22:50:09.871Z,99818.44
2024-04-06T22:52:40.218Z,99819.61
2024-04-06T22:55:12.062Z,99821.41
2024-04-06T22:57:42.794Z,99821.83
2024-04-06T23:00:15.573Z,99823.27
2024-04-06T23:02:46.033Z,99826.45
2024-04-06T23:05:18.478Z,99831.07
2024-04-06T23:07:48.909Z,99831.61
2024-04-06T23:10:20.661Z,99832.92
2024-04-06T23:12:51.807Z,99835.70
2024-04-06T23:15:23.488Z,99836.42
2024-04-06T23:17:54.083Z,99830.92
2024-04-06T23:20:25.847Z,99831.87
2024-04-06T23:22:56.269Z,99830.71
2024-04-06T23:25:28.024Z,99829.14
2024-04-06T23:27:58.368Z,99825.80
2024-04-06T23:30:30.004Z,99823.48
2024-04-06T23:33:00.534Z,99819.69
2024-04-06T23:35:32.200Z,99817.69
2024-04-06T23:38:02.840Z,99818.15
2024-04-06T23:40:40.736Z,99813.29
2024-04-06T23:43:12.485Z,99810.75
2024-04-06T23:45:42.924Z,99811.73
2024-04-06T23:48:15.186Z,99813.17
2024-04-06T23:50:56.057Z,99812.02
2024-04-06T23:53:28.113Z,99806.48
2024-04-06T23:55:58.540Z,99802.20
2024-04-06T23:58:29.996Z,99802.42
